createdAt,value
2018-12-07T00:01:52.021Z,13.00
2018-12-07T00:04:26.088Z,13.00
2018-12-07T00:07:03.936Z,13.00
2018-12-07T00:09:37.817Z,13.00
2018-12-07T00:12:11.740Z,13.00
2018-12-07T00:14:45.787Z,12.90
2018-12-07T00:17:19.702Z,12.90
2018-12-07T00:19:53.557Z,12.80
2018-12-07T00:22:26.784Z,12.80
2018-12-07T00:25:00.049Z,12.70
2018-12-07T00:27:33.943Z,12.70
2018-12-07T00:30:08.034Z,12.70
2018-12-07T00:32:41.767Z,12.60
2018-12-07T00:35:15.833Z,12.60
2018-12-07T00:37:53.429Z,12.60
2018-12-07T00:40:29.505Z,12.60
2018-12-07T00:43:02.972Z,12.60
2018-12-07T00:45:37.018Z,12.60
2018-12-07T00:48:10.951Z,12.60
2018-12-07T00:50:44.792Z,12.60
2018-12-07T00:53:18.897Z,12.60
2018-12-07T00:55:52.208Z,12.60
2018-12-07T00:58:25.940Z,12.60
2018-12-07T01:00:59.184Z,12.70
2018-12-07T01:03:32.993Z,12.70
2018-12-07T01:06:07.045Z,12.70
2018-12-07T01:08:41.056Z,12.80
2018-12-07T01:11:14.285Z,12.80
2018-12-07T01:13:48.269Z,12.80
2018-12-07T01:16:22.109Z,12.80
2018-12-07T01:18:59.932Z,12.80
2018-12-07T01:21:33.984Z,12.80
2018-12-07T01:24:07.924Z,12.90
2018-12-07T01:26:39.124Z,12.90
2018-12-07T01:29:12.950Z,12.90
2018-12-07T01:31:46.825Z,12.90
2018-12-07T01:34:20.634Z,12.80
2018-12-07T01:36:54.636Z,12.80
2018-12-07T01:39:32.349Z,12.80
2018-12-07T01:42:06.445Z,12.70
2018-12-07T01:44:40.281Z,12.70
2018-12-07T01:47:14.314Z,12.70
2018-12-07T01:49:48.317Z,12.70
2018-12-07T01:52:22.129Z,12.70
2018-12-07T01:55:00.067Z,12.70
2018-12-07T01:57:34.001Z,12.60
2018-12-07T02:00:07.972Z,12.60
2018-12-07T02:02:41.896Z,12.50
2018-12-07T02:05:15.765Z,12.40
2018-12-07T02:07:49.705Z,12.40
2018-12-07T02:10:23.758Z,12.40
2018-12-07T02:12:57.573Z,12.40
2018-12-07T02:15:33.570Z,12.30
2018-12-07T02:18:10.929Z,12.30
2018-12-07T02:20:44.163Z,12.30
2018-12-07T02:23:17.960Z,12.30
2018-12-07T02:25:51.908Z,12.30
2018-12-07T02:28:25.728Z,12.30
2018-12-07T02:31:02.878Z,12.30
2018-12-07T02:33:36.884Z,12.30
2018-12-07T02:36:10.920Z,12.30
2018-12-07T02:38:44.725Z,12.30
2018-12-07T02:41:18.832Z,12.30
2018-12-07T02:43:52.255Z,12.30
2018-12-07T02:46:26.580Z,12.30
2018-12-07T02:49:00.269Z,12.40
2018-12-07T02:51:34.129Z,12.40
2018-12-07T02:54:08.037Z,12.40
2018-12-07T02:56:41.845Z,12.50
2018-12-07T02:59:15.597Z,12.50
2018-12-07T03:01:49.580Z,12.50
2018-12-07T03:04:23.382Z,12.50
2018-12-07T03:06:54.548Z,12.50
2018-12-07T03:09:28.340Z,12.50
2018-12-07T03:12:02.534Z,12.40
2018-12-07T03:14:36.356Z,12.40
2018-12-07T03:17:14.280Z,12.40
2018-12-07T03:19:48.448Z,12.40
2018-12-07T03:22:21.707Z,12.40
2018-12-07T03:24:55.720Z,12.40
2018-12-07T03:27:28.968Z,12.40
2018-12-07T03:30:03.850Z,12.50
2018-12-07T03:32:37.207Z,12.50
2018-12-07T03:35:11.174Z,12.50
2018-12-07T03:37:49.089Z,12.60
2018-12-07T03:40:23.141Z,12.60
2018-12-07T03:42:57.180Z,12.50
2018-12-07T03:45:31.087Z,12.50
2018-12-07T03:48:05.045Z,12.60
2018-12-07T03:50:38.977Z,12.50
2018-12-07T03:58:20.716Z,12.50
2018-12-07T04:00:54.524Z,12.60
2018-12-07T04:03:28.531Z,12.60
2018-12-07T04:06:05.294Z,12.60
2018-12-07T04:08:38.600Z,12.60
2018-12-07T04:11:12.460Z,12.60
2018-12-07T04:13:45.882Z,12.60
2018-12-07T04:16:21.844Z,12.60
2018-12-07T04:18:55.863Z,12.60
2018-12-07T04:21:30.024Z,12.70
2018-12-07T04:24:04.021Z,12.70
2018-12-07T04:26:37.981Z,12.70
2018-12-07T04:29:12.095Z,12.80
2018-12-07T04:31:45.929Z,12.80
2018-12-07T04:34:23.461Z,12.80
2018-12-07T04:36:56.930Z,12.80
2018-12-07T04:39:34.781Z,12.80
2018-12-07T04:42:08.920Z,12.80
2018-12-07T04:44:43.058Z,12.80
2018-12-07T04:47:16.934Z,12.80
2018-12-07T04:49:51.101Z,12.80
2018-12-07T04:52:24.957Z,12.70
2018-12-07T04:54:59.061Z,12.70
2018-12-07T04:57:32.932Z,12.70
2018-12-07T05:00:07.137Z,12.60
2018-12-07T05:02:40.571Z,12.60
2018-12-07T05:05:14.716Z,12.50
2018-12-07T05:07:48.669Z,12.50
2018-12-07T05:10:22.707Z,12.50
2018-12-07T05:12:56.579Z,12.50
2018-12-07T05:15:30.576Z,12.50
2018-12-07T05:18:04.395Z,12.50
2018-12-07T05:20:38.318Z,12.50
2018-12-07T05:23:12.390Z,12.60
2018-12-07T05:25:46.248Z,12.50
2018-12-07T05:28:20.038Z,12.50
2018-12-07T05:30:54.138Z,12.50
2018-12-07T05:33:27.406Z,12.50
2018-12-07T05:36:01.463Z,12.50
2018-12-07T05:38:35.495Z,12.40
2018-12-07T05:41:09.641Z,12.40
2018-12-07T05:43:49.392Z,12.40
2018-12-07T05:46:23.485Z,12.40
2018-12-07T05:48:57.413Z,12.40
2018-12-07T05:51:28.740Z,12.40
2018-12-07T05:54:02.576Z,12.40
2018-12-07T05:56:36.616Z,12.40
2018-12-07T05:59:10.782Z,12.40
2018-12-07T06:01:44.866Z,12.40
2018-12-07T06:04:18.804Z,12.40
2018-12-07T06:06:54.690Z,12.40
2018-12-07T06:09:28.649Z,12.40
2018-12-07T06:12:02.789Z,12.30
2018-12-07T06:14:36.739Z,12.30
2018-12-07T06:17:10.367Z,12.20
2018-12-07T06:19:44.426Z,12.20
2018-12-07T06:22:18.325Z,12.20
2018-12-07T06:24:52.408Z,12.10
2018-12-07T06:27:26.134Z,12.10
2018-12-07T06:29:59.994Z,12.10
2018-12-07T06:32:36.273Z,12.10
2018-12-07T06:35:09.731Z,12.10
2018-12-07T06:37:43.530Z,12.10
2018-12-07T06:40:17.569Z,12.00
2018-12-07T06:42:51.476Z,12.00
2018-12-07T06:45:22.637Z,12.00
2018-12-07T06:47:56.556Z,12.00
2018-12-07T06:50:34.351Z,12.00
2018-12-07T06:53:08.470Z,12.00
2018-12-07T06:55:42.397Z,12.00
2018-12-07T06:58:16.428Z,12.00
2018-12-07T07:00:49.648Z,12.00
2018-12-07T07:03:30.165Z,12.00
2018-12-07T07:06:03.504Z,12.00
2018-12-07T07:08:37.674Z,12.00
2018-12-07T07:11:10.891Z,12.00
2018-12-07T07:13:44.854Z,12.00
2018-12-07T07:16:23.238Z,12.00
2018-12-07T07:18:56.164Z,12.00
2018-12-07T07:21:30.096Z,12.00
2018-12-07T07:24:04.220Z,12.10
2018-12-07T07:26:38.021Z,12.10
2018-12-07T07:29:11.997Z,12.10
2018-12-07T07:31:45.735Z,12.10
2018-12-07T07:34:19.872Z,12.20
2018-12-07T07:36:53.829Z,12.30
2018-12-07T07:39:27.871Z,12.30
2018-12-07T07:42:02.053Z,12.30
2018-12-07T07:44:36.025Z,12.30
2018-12-07T07:47:14.078Z,12.30
2018-12-07T07:49:47.341Z,12.30
2018-12-07T07:52:22.340Z,12.20
2018-12-07T07:54:56.560Z,12.30
2018-12-07T07:57:31.197Z,12.30
2018-12-07T08:00:09.213Z,12.30
2018-12-07T08:02:44.793Z,12.30
2018-12-07T08:05:18.601Z,12.30
2018-12-07T08:07:52.616Z,12.30
2018-12-07T08:10:27.667Z,12.40
2018-12-07T08:13:01.571Z,12.40
2018-12-07T08:15:39.210Z,12.40
2018-12-07T08:18:13.420Z,12.50
2018-12-07T08:20:47.251Z,12.50
2018-12-07T08:23:20.622Z,12.50
2018-12-07T08:25:53.865Z,12.50
2018-12-07T08:28:27.925Z,12.50
2018-12-07T08:31:04.280Z,12.50
2018-12-07T08:33:41.025Z,12.50
2018-12-07T08:36:15.134Z,12.50
2018-12-07T08:38:48.400Z,12.60
2018-12-07T08:41:22.229Z,12.70
2018-12-07T08:43:56.393Z,12.80
2018-12-07T08:46:30.287Z,12.90
2018-12-07T08:49:04.211Z,12.90
2018-12-07T08:51:38.166Z,13.00
2018-12-07T08:54:12.141Z,13.10
2018-12-07T08:56:46.075Z,13.10
2018-12-07T08:59:23.911Z,13.10
2018-12-07T09:01:57.834Z,13.10
2018-12-07T09:04:31.900Z,13.10
2018-12-07T09:07:05.810Z,13.10
2018-12-07T09:09:39.857Z,13.10
2018-12-07T09:12:13.764Z,13.10
2018-12-07T09:14:47.808Z,13.10
2018-12-07T09:17:21.621Z,13.10
2018-12-07T09:19:52.988Z,13.10
2018-12-07T09:22:26.689Z,13.10
2018-12-07T09:25:00.536Z,13.10
2018-12-07T09:27:34.359Z,13.20
2018-12-07T09:30:08.316Z,13.20
2018-12-07T09:32:42.352Z,13.30
2018-12-07T09:35:16.404Z,13.40
2018-12-07T09:37:50.540Z,13.50
2018-12-07T09:40:24.665Z,13.40
2018-12-07T09:42:58.564Z,13.40
2018-12-07T09:45:32.384Z,13.40
2018-12-07T09:48:06.425Z,13.40
2018-12-07T09:50:42.630Z,13.40
2018-12-07T09:53:16.470Z,13.40
2018-12-07T09:55:50.565Z,13.40
2018-12-07T09:58:24.558Z,13.40
2018-12-07T10:00:58.513Z,13.40
2018-12-07T10:03:32.069Z,13.30
2018-12-07T10:06:05.926Z,13.20
2018-12-07T10:08:39.840Z,13.20
2018-12-07T10:11:13.843Z,13.20
2018-12-07T10:13:47.809Z,13.20
2018-12-07T10:16:21.621Z,13.20
2018-12-07T10:18:55.561Z,13.20
2018-12-07T10:21:29.416Z,13.30
2018-12-07T10:24:03.201Z,13.20
2018-12-07T10:26:37.073Z,13.20
2018-12-07T10:29:11.186Z,13.20
2018-12-07T10:31:45.815Z,13.10
2018-12-07T10:34:19.158Z,13.10
2018-12-07T10:36:53.013Z,13.10
2018-12-07T10:39:26.993Z,13.00
2018-12-07T10:42:00.989Z,13.00
2018-12-07T10:44:35.025Z,12.90
2018-12-07T10:47:08.982Z,12.80
2018-12-07T10:49:40.041Z,12.80
2018-12-07T10:52:13.680Z,12.80
2018-12-07T10:54:47.520Z,12.70
2018-12-07T10:57:21.523Z,12.70
2018-12-07T10:59:55.559Z,12.80
2018-12-07T11:02:35.392Z,12.70
2018-12-07T11:05:18.658Z,12.60
2018-12-07T11:07:57.684Z,12.70
2018-12-07T11:10:37.846Z,12.60
2018-12-07T11:13:17.308Z,12.60
2018-12-07T11:15:56.111Z,12.60
2018-12-07T11:18:35.472Z,12.60
2018-12-07T11:21:12.835Z,12.60
2018-12-07T11:23:52.812Z,12.60
2018-12-07T11:26:32.508Z,12.50
2018-12-07T11:29:13.656Z,12.50
2018-12-07T11:31:52.583Z,12.50
2018-12-07T11:34:26.657Z,12.50
2018-12-07T11:37:00.182Z,12.50
2018-12-07T11:39:34.311Z,12.40
2018-12-07T11:42:08.489Z,12.40
2018-12-07T11:44:46.271Z,12.40
2018-12-07T11:47:20.265Z,12.40
2018-12-07T11:49:54.285Z,12.40
2018-12-07T11:52:28.181Z,12.40
2018-12-07T11:55:02.115Z,12.40
2018-12-07T11:57:36.136Z,12.40
2018-12-07T12:00:10.174Z,12.40
2018-12-07T12:02:44.099Z,12.40
2018-12-07T12:05:20.872Z,12.40
2018-12-07T12:07:55.039Z,12.40
2018-12-07T12:10:29.181Z,12.40
2018-12-07T12:18:11.208Z,12.20
2018-12-07T12:20:44.944Z,12.10
2018-12-07T12:23:18.894Z,12.10
2018-12-07T12:25:52.913Z,12.10
2018-12-07T12:28:26.570Z,12.00
2018-12-07T12:31:02.579Z,12.10
2018-12-07T12:33:36.407Z,12.00
2018-12-07T12:36:16.774Z,12.00
2018-12-07T12:38:50.412Z,12.00
2018-12-07T12:41:28.342Z,12.10
2018-12-07T12:44:03.529Z,12.10
2018-12-07T12:46:36.960Z,12.10
2018-12-07T12:49:10.769Z,12.20
2018-12-07T12:51:44.888Z,12.30
2018-12-07T12:54:18.825Z,12.40
2018-12-07T12:56:52.763Z,12.40
2018-12-07T12:59:26.788Z,12.50
2018-12-07T13:02:00.744Z,12.50
2018-12-07T13:04:34.644Z,12.60
2018-12-07T13:07:08.697Z,12.70
2018-12-07T13:09:42.589Z,12.70
2018-12-07T13:12:16.632Z,12.70
2018-12-07T13:14:50.572Z,12.60
2018-12-07T13:17:24.520Z,12.50
2018-12-07T13:19:58.498Z,12.50
2018-12-07T13:22:32.718Z,12.50
2018-12-07T13:25:07.564Z,12.60
2018-12-07T13:27:41.329Z,12.80
2018-12-07T13:30:15.464Z,13.00
2018-12-07T13:32:51.292Z,13.20
2018-12-07T13:35:24.685Z,13.20
2018-12-07T13:38:02.457Z,13.30
2018-12-07T13:40:36.656Z,13.30
2018-12-07T13:43:10.822Z,13.10
2018-12-07T13:45:44.761Z,13.00
2018-12-07T13:48:18.894Z,13.00
2018-12-07T13:50:52.613Z,13.00
2018-12-07T13:53:26.792Z,12.90
2018-12-07T13:56:01.597Z,12.80
2018-12-07T13:58:36.490Z,12.70
2018-12-07T14:01:10.400Z,12.70
2018-12-07T14:03:44.142Z,12.60
2018-12-07T14:06:18.432Z,12.60
2018-12-07T14:08:52.355Z,12.60
2018-12-07T14:11:26.692Z,12.70
2018-12-07T14:14:01.407Z,12.70
2018-12-07T14:16:36.480Z,12.70
2018-12-07T14:21:43.058Z,12.50
2018-12-07T14:24:21.075Z,12.50
2018-12-07T14:26:59.547Z,12.50
2018-12-07T14:29:31.270Z,12.50
2018-12-07T14:32:09.273Z,12.50
2018-12-07T14:34:43.308Z,12.40
2018-12-07T14:37:17.381Z,12.40
2018-12-07T14:39:53.216Z,12.40
2018-12-07T14:42:27.790Z,12.40
2018-12-07T14:45:02.151Z,12.40
2018-12-07T14:47:37.001Z,12.40
2018-12-07T14:50:11.587Z,12.40
2018-12-07T14:52:45.337Z,12.30
2018-12-07T14:55:19.200Z,12.20
2018-12-07T14:57:52.767Z,12.20
2018-12-07T15:00:26.981Z,12.20
2018-12-07T15:03:01.282Z,12.20
2018-12-07T15:05:35.088Z,12.30
2018-12-07T15:08:09.173Z,12.30
2018-12-07T15:10:42.919Z,12.30
2018-12-07T15:13:16.940Z,12.30
2018-12-07T15:15:50.676Z,12.30
2018-12-07T15:18:24.767Z,12.30
2018-12-07T15:23:32.452Z,12.30
2018-12-07T15:26:06.281Z,12.20
2018-12-07T15:28:40.205Z,12.20
2018-12-07T15:31:15.462Z,12.20
2018-12-07T15:33:49.934Z,12.10
2018-12-07T15:36:23.779Z,12.10
2018-12-07T15:38:57.615Z,12.00
2018-12-07T15:41:31.692Z,12.00
2018-12-07T15:44:05.318Z,12.10
2018-12-07T15:46:39.461Z,12.10
2018-12-07T15:49:13.506Z,12.10
2018-12-07T15:51:47.403Z,12.10
2018-12-07T15:54:21.250Z,12.10
2018-12-07T15:56:55.539Z,12.10
2018-12-07T15:59:34.617Z,12.10
2018-12-07T16:02:08.249Z,12.10
2018-12-07T16:04:42.259Z,12.10
2018-12-07T16:07:15.741Z,12.00
2018-12-07T16:09:52.287Z,12.00
2018-12-07T16:12:25.686Z,12.00
2018-12-07T16:14:59.786Z,12.00
2018-12-07T16:17:33.617Z,12.00
2018-12-07T16:20:09.491Z,11.90
2018-12-07T16:22:43.109Z,11.90
2018-12-07T16:25:17.195Z,11.90
2018-12-07T16:27:54.635Z,11.90
2018-12-07T16:30:28.775Z,11.80
2018-12-07T16:33:02.713Z,11.80
2018-12-07T16:35:40.470Z,11.80
2018-12-07T16:38:14.588Z,11.70
2018-12-07T16:40:52.508Z,11.70
2018-12-07T16:43:28.431Z,11.70
2018-12-07T16:46:02.385Z,11.70
2018-12-07T16:48:36.571Z,11.70
2018-12-07T16:51:10.074Z,11.70
2018-12-07T16:53:44.028Z,11.70
2018-12-07T16:56:17.873Z,11.70
2018-12-07T16:58:55.785Z,11.70
2018-12-07T17:01:30.141Z,11.60
2018-12-07T17:04:04.039Z,11.60
2018-12-07T17:06:38.209Z,11.60
2018-12-07T17:09:12.209Z,11.60
2018-12-07T17:11:46.327Z,11.60
2018-12-07T17:14:20.588Z,11.50
2018-12-07T17:16:54.392Z,11.40
2018-12-07T17:19:28.533Z,11.40
2018-12-07T17:22:02.418Z,11.40
2018-12-07T17:24:36.196Z,11.50
2018-12-07T17:27:10.163Z,11.50
2018-12-07T17:29:44.682Z,11.50
2018-12-07T17:32:18.902Z,11.50
2018-12-07T17:34:53.309Z,11.60
2018-12-07T17:37:27.822Z,11.70
2018-12-07T17:40:02.236Z,11.60
2018-12-07T17:42:36.075Z,11.70
2018-12-07T17:45:11.283Z,11.70
2018-12-07T17:47:45.346Z,11.70
2018-12-07T17:50:19.052Z,11.70
2018-12-07T17:52:56.885Z,11.60
2018-12-07T17:55:30.830Z,11.50
2018-12-07T17:58:04.524Z,11.30
2018-12-07T18:00:38.770Z,11.20
2018-12-07T18:03:12.561Z,11.10
2018-12-07T18:05:46.647Z,11.10
2018-12-07T18:08:20.334Z,11.10
2018-12-07T18:10:56.531Z,11.00
2018-12-07T18:13:34.412Z,11.00
2018-12-07T18:16:08.477Z,11.00
2018-12-07T18:18:42.506Z,11.00
2018-12-07T18:21:16.710Z,11.00
2018-12-07T18:23:50.510Z,11.00
2018-12-07T18:26:28.253Z,11.00
2018-12-07T18:29:02.490Z,11.10
2018-12-07T18:31:36.566Z,11.00
2018-12-07T18:34:10.656Z,10.80
2018-12-07T18:36:44.724Z,10.80
2018-12-07T18:39:18.326Z,10.60
2018-12-07T18:41:52.394Z,10.40
2018-12-07T18:44:31.499Z,10.40
2018-12-07T18:47:05.667Z,10.40
2018-12-07T18:49:39.530Z,10.40
2018-12-07T18:52:13.629Z,10.50
2018-12-07T18:54:47.406Z,10.40
2018-12-07T18:57:21.652Z,10.30
2018-12-07T18:59:55.436Z,10.40
2018-12-07T19:02:33.194Z,10.30
2018-12-07T19:05:07.647Z,10.30
2018-12-07T19:07:41.120Z,10.30
2018-12-07T19:10:15.089Z,10.30
2018-12-07T19:12:49.061Z,10.20
2018-12-07T19:15:23.080Z,10.30
2018-12-07T19:17:57.288Z,10.20
2018-12-07T19:20:31.328Z,10.30
2018-12-07T19:23:05.126Z,10.20
2018-12-07T19:25:39.063Z,10.20
2018-12-07T19:28:13.310Z,10.20
2018-12-07T19:30:47.306Z,10.20
2018-12-07T19:33:21.341Z,10.30
2018-12-07T19:35:55.713Z,10.40
2018-12-07T19:38:29.782Z,10.40
2018-12-07T19:41:03.628Z,10.30
2018-12-07T19:43:37.567Z,9.10
2018-12-07T19:46:11.842Z,8.30
2018-12-07T19:48:45.510Z,7.90
2018-12-07T19:51:19.448Z,7.80
2018-12-07T19:53:53.201Z,7.80
2018-12-07T19:56:26.931Z,7.80
2018-12-07T19:59:01.362Z,7.90
2018-12-07T20:01:35.248Z,8.00
2018-12-07T20:04:09.152Z,8.10
2018-12-07T20:06:43.234Z,8.10
2018-12-07T20:09:17.354Z,8.20
2018-12-07T20:11:51.597Z,8.20
2018-12-07T20:14:25.545Z,8.20
2018-12-07T20:16:59.558Z,8.20
2018-12-07T20:19:33.320Z,8.20
2018-12-07T20:22:07.234Z,8.20
2018-12-07T20:24:40.911Z,8.20
2018-12-07T20:27:15.248Z,8.10
2018-12-07T20:29:49.119Z,8.20
2018-12-07T20:32:22.870Z,8.20
2018-12-07T20:34:57.336Z,8.20
2018-12-07T20:37:31.354Z,8.20
2018-12-07T20:40:05.584Z,8.20
2018-12-07T20:42:42.162Z,8.20
2018-12-07T20:45:16.101Z,8.20
2018-12-07T20:47:51.173Z,8.20
2018-12-07T20:50:25.454Z,8.10
2018-12-07T20:53:00.205Z,8.20
2018-12-07T20:55:38.105Z,8.20
2018-12-07T20:58:11.901Z,8.20
2018-12-07T21:00:46.309Z,8.20
2018-12-07T21:03:29.759Z,8.10
2018-12-07T21:06:40.486Z,8.10
2018-12-07T21:09:22.746Z,8.00
2018-12-07T21:11:58.827Z,8.10
2018-12-07T21:14:32.773Z,8.10
2018-12-07T21:17:09.178Z,8.10
2018-12-07T21:19:45.853Z,8.20
2018-12-07T21:22:20.171Z,8.20
2018-12-07T21:24:54.512Z,8.20
2018-12-07T21:27:28.414Z,8.20
2018-12-07T21:30:04.359Z,8.30
2018-12-07T21:32:37.657Z,8.30
2018-12-07T21:35:13.826Z,8.30
2018-12-07T21:37:47.646Z,8.30
2018-12-07T21:40:21.135Z,8.20
2018-12-07T21:42:55.356Z,8.10
2018-12-07T21:45:33.048Z,8.00
2018-12-07T21:48:14.304Z,8.00
2018-12-07T21:50:50.050Z,7.90
2018-12-07T21:53:24.017Z,7.90
2018-12-07T21:55:58.074Z,7.80
2018-12-07T21:58:32.025Z,7.80
2018-12-07T22:01:05.925Z,7.80
2018-12-07T22:03:39.948Z,7.80
2018-12-07T22:06:13.689Z,7.90
2018-12-07T22:08:47.775Z,7.90
2018-12-07T22:11:25.873Z,8.00
2018-12-07T22:13:59.640Z,7.90
2018-12-07T22:16:33.300Z,7.90
2018-12-07T22:19:07.253Z,8.00
2018-12-07T22:21:41.201Z,8.00
2018-12-07T22:24:19.096Z,8.10
2018-12-07T22:26:52.867Z,8.10
2018-12-07T22:29:26.986Z,8.20
2018-12-07T22:32:00.698Z,8.20
2018-12-07T22:34:34.739Z,8.20
2018-12-07T22:37:08.840Z,8.20
2018-12-07T22:39:42.549Z,8.10
2018-12-07T22:42:16.309Z,8.10
2018-12-07T22:44:53.959Z,8.10
2018-12-07T22:47:27.781Z,8.10
2018-12-07T22:50:01.672Z,8.10
2018-12-07T22:52:35.469Z,8.10
2018-12-07T22:55:09.246Z,8.10
2018-12-07T22:57:43.156Z,8.10
2018-12-07T23:00:18.969Z,8.10
2018-12-07T23:02:52.684Z,8.10
2018-12-07T23:05:28.788Z,8.10
2018-12-07T23:08:02.716Z,8.10
2018-12-07T23:10:36.622Z,8.10
2018-12-07T23:13:10.748Z,8.10
2018-12-07T23:15:44.813Z,8.10
2018-12-07T23:18:18.752Z,8.10
2018-12-07T23:20:52.465Z,8.10
2018-12-07T23:23:26.317Z,8.00
2018-12-07T23:26:00.065Z,8.00
2018-12-07T23:28:34.021Z,8.00
2018-12-07T23:31:07.781Z,7.90
2018-12-07T23:33:45.326Z,7.90
2018-12-07T23:36:19.408Z,7.90
2018-12-07T23:38:53.350Z,7.90
2018-12-07T23:41:27.333Z,7.90
2018-12-07T23:44:01.233Z,7.80
2018-12-07T23:46:35.221Z,7.70
2018-12-07T23:49:13.032Z,7.50
2018-12-07T23:51:49.097Z,7.40
2018-12-07T23:54:22.873Z,7.40
2018-12-07T23:56:56.644Z,7.40
2018-12-07T23:59:30.318Z,7.40
